sensor_id;sensor_type;location;lat;lon;timestamp;pressure;altitude;pressure_sealevel;temperature;humidity
6038;BME280;3047;42.600;23.470;2022-08-01T00:02:20;92990.91;;;19.29;82.56
6038;BME280;3047;42.600;23.470;2022-08-01T00:04:48;93030.84;;;19.59;83.31
6038;BME280;3047;42.600;23.470;2022-08-01T00:07:17;92897.06;;;18.88;83.68
6038;BME280;3047;42.600;23.470;2022-08-01T00:09:45;93022.53;;;19.55;86.53
6038;BME280;3047;42.600;23.470;2022-08-01T00:12:14;92849.81;;;18.52;86.36
6038;BME280;3047;42.600;23.470;2022-08-01T00:14:41;92857.97;;;18.45;88.48
6038;BME280;3047;42.600;23.470;2022-08-01T00:17:10;93032.56;;;19.45;88.82
6038;BME280;3047;42.600;23.470;2022-08-01T00:19:37;92945.16;;;18.83;90.42
6038;BME280;3047;42.600;23.470;2022-08-01T00:22:20;92926.81;;;18.62;89.74
6038;BME280;3047;42.600;23.470;2022-08-01T00:24:49;93037.31;;;19.24;90.85
6038;BME280;3047;42.600;23.470;2022-08-01T00:27:18;92943.19;;;18.60;92.50
6038;BME280;3047;42.600;23.470;2022-08-01T00:29:45;92944.00;;;18.60;93.55
6038;BME280;3047;42.600;23.470;2022-08-01T00:32:15;93043.72;;;19.17;94.32
6038;BME280;3047;42.600;23.470;2022-08-01T00:34:42;93006.66;;;18.82;94.22
6038;BME280;3047;42.600;23.470;2022-08-01T00:37:09;93039.75;;;18.85;94.44
6038;BME280;3047;42.600;23.470;2022-08-01T00:39:40;93044.41;;;18.64;95.67
6038;BME280;3047;42.600;23.470;2022-08-01T00:42:18;92877.19;;;17.52;95.86
6038;BME280;3047;42.600;23.470;2022-08-01T00:44:45;92981.09;;;18.10;97.04
6038;BME280;3047;42.600;23.470;2022-08-01T00:47:12;93036.16;;;18.16;97.26
6038;BME280;3047;42.600;23.470;2022-08-01T00:49:45;93044.13;;;18.25;97.24
6038;BME280;3047;42.600;23.470;2022-08-01T00:52:13;93029.31;;;18.16;97.43
6038;BME280;3047;42.600;23.470;2022-08-01T00:54:43;93045.19;;;18.21;98.01
6038;BME280;3047;42.600;23.470;2022-08-01T00:57:10;92933.72;;;17.46;98.35
6038;BME280;3047;42.600;23.470;2022-08-01T00:59:39;93034.41;;;18.02;98.51
6038;BME280;3047;42.600;23.470;2022-08-01T01:02:12;92979.63;;;17.62;99.17
6038;BME280;3047;42.600;23.470;2022-08-01T01:04:44;93030.56;;;17.95;98.92
6038;BME280;3047;42.600;23.470;2022-08-01T01:07:16;93030.94;;;17.73;99.36
6038;BME280;3047;42.600;23.470;2022-08-01T01:10:12;92932.47;;;17.23;99.00
6038;BME280;3047;42.600;23.470;2022-08-01T01:12:46;93023.84;;;17.78;99.73
6038;BME280;3047;42.600;23.470;2022-08-01T01:15:17;92767.38;;;16.19;99.00
6038;BME280;3047;42.600;23.470;2022-08-01T01:18:17;92902.41;;;16.98;100.00
6038;BME280;3047;42.600;23.470;2022-08-01T01:20:56;92971.19;;;17.45;99.15
6038;BME280;3047;42.600;23.470;2022-08-01T01:23:40;92905.78;;;16.98;99.76
6038;BME280;3047;42.600;23.470;2022-08-01T01:26:36;92993.19;;;17.48;100.00
6038;BME280;3047;42.600;23.470;2022-08-01T01:29:17;92983.97;;;17.45;98.67
6038;BME280;3047;42.600;23.470;2022-08-01T01:31:55;92989.44;;;17.39;99.22
6038;BME280;3047;42.600;23.470;2022-08-01T01:34:27;92990.81;;;17.45;100.00
6038;BME280;3047;42.600;23.470;2022-08-01T01:36:55;92994.69;;;17.36;99.54
6038;BME280;3047;42.600;23.470;2022-08-01T01:39:25;92991.31;;;17.36;97.13
6038;BME280;3047;42.600;23.470;2022-08-01T01:41:56;92700.03;;;15.61;96.61
6038;BME280;3047;42.600;23.470;2022-08-01T01:44:27;92883.50;;;16.70;97.19
6038;BME280;3047;42.600;23.470;2022-08-01T01:46:56;92939.78;;;16.99;96.10
6038;BME280;3047;42.600;23.470;2022-08-01T01:49:25;92914.44;;;16.96;95.66
6038;BME280;3047;42.600;23.470;2022-08-01T01:51:54;92986.78;;;17.41;95.00
6038;BME280;3047;42.600;23.470;2022-08-01T01:54:24;92984.06;;;17.44;93.26
6038;BME280;3047;42.600;23.470;2022-08-01T01:56:55;92821.34;;;16.57;92.32
6038;BME280;3047;42.600;23.470;2022-08-01T01:59:29;92951.06;;;17.25;91.39
6038;BME280;3047;42.600;23.470;2022-08-01T02:02:00;92929.81;;;17.10;89.93
6038;BME280;3047;42.600;23.470;2022-08-01T02:04:28;92960.84;;;17.33;90.20
6038;BME280;3047;42.600;23.470;2022-08-01T02:06:59;92956.00;;;17.28;89.08
6038;BME280;3047;42.600;23.470;2022-08-01T02:09:43;92976.69;;;17.53;87.32
6038;BME280;3047;42.600;23.470;2022-08-01T02:12:18;92788.31;;;16.40;89.27
6038;BME280;3047;42.600;23.470;2022-08-01T02:14:50;92878.38;;;17.02;84.43
6038;BME280;3047;42.600;23.470;2022-08-01T02:17:21;92907.38;;;17.15;84.16
6038;BME280;3047;42.600;23.470;2022-08-01T02:19:49;92964.19;;;17.49;84.58
6038;BME280;3047;42.600;23.470;2022-08-01T02:22:21;92890.13;;;17.04;81.43
6038;BME280;3047;42.600;23.470;2022-08-01T02:24:54;92980.28;;;17.65;81.43
6038;BME280;3047;42.600;23.470;2022-08-01T02:27:25;92867.75;;;17.10;79.03
6038;BME280;3047;42.600;23.470;2022-08-01T02:30:00;92743.16;;;16.42;79.65
6038;BME280;3047;42.600;23.470;2022-08-01T02:32:38;92867.31;;;17.32;76.95
6038;BME280;3047;42.600;23.470;2022-08-01T02:35:18;92903.28;;;17.57;79.61
6038;BME280;3047;42.600;23.470;2022-08-01T02:37:47;92887.19;;;17.41;77.48
6038;BME280;3047;42.600;23.470;2022-08-01T02:40:16;92952.78;;;17.85;77.40
6038;BME280;3047;42.600;23.470;2022-08-01T02:42:47;92826.41;;;17.03;79.76
6038;BME280;3047;42.600;23.470;2022-08-01T02:48:38;92761.78;;;16.58;76.16
6038;BME280;3047;42.600;23.470;2022-08-01T02:51:09;92956.59;;;17.77;77.26
6038;BME280;3047;42.600;23.470;2022-08-01T02:53:40;92959.97;;;17.78;75.99
6038;BME280;3047;42.600;23.470;2022-08-01T02:56:12;92959.66;;;17.68;77.74
6038;BME280;3047;42.600;23.470;2022-08-01T02:58:40;92963.84;;;17.69;76.98
6038;BME280;3047;42.600;23.470;2022-08-01T03:01:10;92933.66;;;17.62;74.35
6038;BME280;3047;42.600;23.470;2022-08-01T03:03:39;92969.06;;;17.68;74.84
6038;BME280;3047;42.600;23.470;2022-08-01T03:06:10;92943.16;;;17.60;78.57
6038;BME280;3047;42.600;23.470;2022-08-01T03:08:38;92950.81;;;17.74;76.46
6038;BME280;3047;42.600;23.470;2022-08-01T03:11:11;92768.69;;;16.56;74.20
6038;BME280;3047;42.600;23.470;2022-08-01T03:13:41;92899.38;;;17.21;72.09
6038;BME280;3047;42.600;23.470;2022-08-01T03:16:11;92965.88;;;17.64;70.64
6038;BME280;3047;42.600;23.470;2022-08-01T03:18:40;92714.50;;;16.22;73.64
6038;BME280;3047;42.600;23.470;2022-08-01T03:21:18;92877.69;;;17.28;75.63
6038;BME280;3047;42.600;23.470;2022-08-01T03:23:48;92818.94;;;17.00;79.96
6038;BME280;3047;42.600;23.470;2022-08-01T03:26:19;92821.50;;;17.00;81.26
6038;BME280;3047;42.600;23.470;2022-08-01T03:28:47;92965.03;;;17.79;82.25
6038;BME280;3047;42.600;23.470;2022-08-01T03:31:18;92774.44;;;16.60;82.89
6038;BME280;3047;42.600;23.470;2022-08-01T03:33:45;92939.66;;;17.46;78.84
6038;BME280;3047;42.600;23.470;2022-08-01T03:36:12;92970.16;;;17.64;76.43
6038;BME280;3047;42.600;23.470;2022-08-01T03:38:41;92877.34;;;17.04;75.78
6038;BME280;3047;42.600;23.470;2022-08-01T03:41:11;92875.50;;;16.92;74.92
6038;BME280;3047;42.600;23.470;2022-08-01T03:43:43;92971.78;;;17.65;74.77
6038;BME280;3047;42.600;23.470;2022-08-01T03:46:19;92848.91;;;16.96;73.67
6038;BME280;3047;42.600;23.470;2022-08-01T03:48:48;92967.75;;;17.76;74.26
6038;BME280;3047;42.600;23.470;2022-08-01T03:51:18;92806.94;;;17.02;73.10
6038;BME280;3047;42.600;23.470;2022-08-01T03:53:45;92936.47;;;17.87;72.45
6038;BME280;3047;42.600;23.470;2022-08-01T03:56:19;92966.84;;;18.06;72.49
6038;BME280;3047;42.600;23.470;2022-08-01T03:58:47;92911.38;;;17.79;72.76
6038;BME280;3047;42.600;23.470;2022-08-01T04:01:15;92874.84;;;17.63;72.77
6038;BME280;3047;42.600;23.470;2022-08-01T04:03:44;92808.59;;;17.32;72.09
6038;BME280;3047;42.600;23.470;2022-08-01T04:13:32;92665.66;;;16.74;70.42
6038;BME280;3047;42.600;23.470;2022-08-01T04:16:37;92963.25;;;18.66;71.46
6038;BME280;3047;42.600;23.470;2022-08-01T04:19:30;92960.50;;;18.83;70.79
6038;BME280;3047;42.600;23.470;2022-08-01T04:25:48;92963.13;;;18.96;73.36
6038;BME280;3047;42.600;23.470;2022-08-01T04:35:43;92962.97;;;19.39;79.65
6038;BME280;3047;42.600;23.470;2022-08-01T04:48:58;92739.00;;;18.12;82.23
6038;BME280;3047;42.600;23.470;2022-08-01T04:51:31;92834.09;;;18.86;85.68
6038;BME280;3047;42.600;23.470;2022-08-01T04:53:57;92954.47;;;19.78;86.30
6038;BME280;3047;42.600;23.470;2022-08-01T04:56:26;92950.66;;;19.84;86.41
6038;BME280;3047;42.600;23.470;2022-08-01T04:58:53;92950.97;;;19.92;81.64
6038;BME280;3047;42.600;23.470;2022-08-01T05:01:34;92935.38;;;19.82;82.72
6038;BME280;3047;42.600;23.470;2022-08-01T05:04:01;92950.16;;;20.04;84.55
6038;BME280;3047;42.600;23.470;2022-08-01T05:06:28;92952.63;;;20.18;85.87
6038;BME280;3047;42.600;23.470;2022-08-01T05:08:56;92950.75;;;20.20;84.93
6038;BME280;3047;42.600;23.470;2022-08-01T05:11:22;92953.22;;;20.22;81.16
6038;BME280;3047;42.600;23.470;2022-08-01T05:13:49;92951.97;;;20.28;81.99
6038;BME280;3047;42.600;23.470;2022-08-01T05:16:16;92955.97;;;20.44;80.80
6038;BME280;3047;42.600;23.470;2022-08-01T05:18:43;92954.50;;;20.66;79.21
6038;BME280;3047;42.600;23.470;2022-08-01T05:21:10;92953.44;;;20.81;81.22
6038;BME280;3047;42.600;23.470;2022-08-01T05:23:36;92960.28;;;20.93;81.77
6038;BME280;3047;42.600;23.470;2022-08-01T05:26:05;92961.66;;;21.10;78.64
6038;BME280;3047;42.600;23.470;2022-08-01T05:28:31;92971.16;;;21.21;76.95
6038;BME280;3047;42.600;23.470;2022-08-01T05:30:58;92965.66;;;21.38;79.69
6038;BME280;3047;42.600;23.470;2022-08-01T05:33:25;92967.69;;;21.46;77.91
6038;BME280;3047;42.600;23.470;2022-08-01T05:35:52;92955.47;;;21.61;75.42
6038;BME280;3047;42.600;23.470;2022-08-01T05:38:18;92961.34;;;21.74;78.04
6038;BME280;3047;42.600;23.470;2022-08-01T05:40:45;92832.66;;;21.07;75.54
6038;BME280;3047;42.600;23.470;2022-08-01T05:43:13;92970.28;;;21.92;73.60
6038;BME280;3047;42.600;23.470;2022-08-01T05:45:40;92976.28;;;22.04;73.89
6038;BME280;3047;42.600;23.470;2022-08-01T05:48:07;92975.13;;;22.08;73.26
6038;BME280;3047;42.600;23.470;2022-08-01T05:50:34;92962.53;;;22.28;71.61
6038;BME280;3047;42.600;23.470;2022-08-01T05:53:04;92918.16;;;22.02;72.83
6038;BME280;3047;42.600;23.470;2022-08-01T05:55:31;92945.56;;;22.14;72.81
6038;BME280;3047;42.600;23.470;2022-08-01T05:57:58;92953.06;;;22.28;70.59
6038;BME280;3047;42.600;23.470;2022-08-01T06:00:26;92936.75;;;22.05;70.34
6038;BME280;3047;42.600;23.470;2022-08-01T06:02:52;92976.09;;;22.30;73.38
6038;BME280;3047;42.600;23.470;2022-08-01T06:05:19;92956.81;;;22.24;71.99
6038;BME280;3047;42.600;23.470;2022-08-01T06:07:46;92982.66;;;22.45;72.53
6038;BME280;3047;42.600;23.470;2022-08-01T06:10:13;92989.91;;;22.40;71.63
6038;BME280;3047;42.600;23.470;2022-08-01T06:12:40;92960.66;;;22.18;70.11
6038;BME280;3047;42.600;23.470;2022-08-01T06:15:10;92952.81;;;22.20;72.21
6038;BME280;3047;42.600;23.470;2022-08-01T06:17:38;92967.44;;;22.19;71.92
6038;BME280;3047;42.600;23.470;2022-08-01T06:20:07;92945.41;;;22.04;70.76
6038;BME280;3047;42.600;23.470;2022-08-01T06:22:34;92986.53;;;22.28;71.63
6038;BME280;3047;42.600;23.470;2022-08-01T06:25:01;92971.06;;;22.17;71.38
6038;BME280;3047;42.600;23.470;2022-08-01T06:27:34;92981.81;;;22.22;70.59
6038;BME280;3047;42.600;23.470;2022-08-01T06:30:01;92974.34;;;22.30;68.98
6038;BME280;3047;42.600;23.470;2022-08-01T06:32:31;92930.22;;;22.12;70.69
6038;BME280;3047;42.600;23.470;2022-08-01T06:34:59;92924.72;;;22.06;67.75
6038;BME280;3047;42.600;23.470;2022-08-01T06:37:28;92977.53;;;22.45;68.69
6038;BME280;3047;42.600;23.470;2022-08-01T06:39:55;92965.56;;;22.55;67.76
6038;BME280;3047;42.600;23.470;2022-08-01T06:42:22;92973.41;;;22.42;67.52
6038;BME280;3047;42.600;23.470;2022-08-01T06:44:49;92974.69;;;22.48;69.54
6038;BME280;3047;42.600;23.470;2022-08-01T06:47:16;92950.38;;;22.41;68.04
6038;BME280;3047;42.600;23.470;2022-08-01T06:49:42;92980.31;;;22.42;70.20
6038;BME280;3047;42.600;23.470;2022-08-01T06:52:11;92974.47;;;22.40;65.27
6038;BME280;3047;42.600;23.470;2022-08-01T06:54:37;92919.03;;;22.13;64.52
6038;BME280;3047;42.600;23.470;2022-08-01T06:57:04;92965.00;;;22.29;63.43
6038;BME280;3047;42.600;23.470;2022-08-01T06:59:32;92960.19;;;22.25;65.17
6038;BME280;3047;42.600;23.470;2022-08-01T07:01:58;92961.97;;;22.24;65.07
6038;BME280;3047;42.600;23.470;2022-08-01T07:04:26;92888.19;;;21.67;66.36
6038;BME280;3047;42.600;23.470;2022-08-01T07:06:53;92957.34;;;22.05;65.47
6038;BME280;3047;42.600;23.470;2022-08-01T07:09:21;92960.59;;;22.07;64.78
6038;BME280;3047;42.600;23.470;2022-08-01T07:11:47;92960.69;;;21.94;64.80
6038;BME280;3047;42.600;23.470;2022-08-01T07:14:16;92970.00;;;21.73;65.45
6038;BME280;3047;42.600;23.470;2022-08-01T07:16:42;92958.06;;;21.61;66.33
6038;BME280;3047;42.600;23.470;2022-08-01T07:19:09;92973.78;;;21.80;65.92
6038;BME280;3047;42.600;23.470;2022-08-01T07:21:36;92975.63;;;21.78;66.95
6038;BME280;3047;42.600;23.470;2022-08-01T07:24:08;92967.97;;;22.01;66.35
6038;BME280;3047;42.600;23.470;2022-08-01T07:26:36;92967.97;;;22.12;63.65
6038;BME280;3047;42.600;23.470;2022-08-01T07:29:03;92925.94;;;21.78;65.43
6038;BME280;3047;42.600;23.470;2022-08-01T07:31:30;92977.28;;;22.26;65.19
6038;BME280;3047;42.600;23.470;2022-08-01T07:33:57;92956.34;;;22.30;64.95
6038;BME280;3047;42.600;23.470;2022-08-01T07:36:23;92929.78;;;22.18;63.98
6038;BME280;3047;42.600;23.470;2022-08-01T07:38:50;92970.38;;;22.60;63.88
6038;BME280;3047;42.600;23.470;2022-08-01T07:41:17;92967.66;;;22.84;64.18
6038;BME280;3047;42.600;23.470;2022-08-01T07:43:47;92885.47;;;22.37;63.99
6038;BME280;3047;42.600;23.470;2022-08-01T07:46:15;92901.22;;;22.55;64.07
6038;BME280;3047;42.600;23.470;2022-08-01T07:48:46;92823.69;;;22.26;63.32
6038;BME280;3047;42.600;23.470;2022-08-01T07:51:13;92929.28;;;23.24;64.98
6038;BME280;3047;42.600;23.470;2022-08-01T07:53:43;92961.22;;;23.65;63.63
6038;BME280;3047;42.600;23.470;2022-08-01T07:56:12;92874.16;;;23.15;61.25
6038;BME280;3047;42.600;23.470;2022-08-01T07:58:39;92959.16;;;23.59;60.59
6038;BME280;3047;42.600;23.470;2022-08-01T08:01:08;92953.00;;;23.50;61.43
6038;BME280;3047;42.600;23.470;2022-08-01T08:03:36;92918.50;;;23.30;60.27
6038;BME280;3047;42.600;23.470;2022-08-01T08:06:03;92937.03;;;23.24;59.60
6038;BME280;3047;42.600;23.470;2022-08-01T08:08:30;92957.41;;;23.59;61.80
6038;BME280;3047;42.600;23.470;2022-08-01T08:10:57;92972.28;;;23.67;58.75
6038;BME280;3047;42.600;23.470;2022-08-01T08:13:23;92974.41;;;23.62;58.97
6038;BME280;3047;42.600;23.470;2022-08-01T08:15:50;92978.44;;;23.76;59.00
6038;BME280;3047;42.600;23.470;2022-08-01T08:18:19;92959.63;;;23.85;57.49
6038;BME280;3047;42.600;23.470;2022-08-01T08:20:46;92976.25;;;24.13;57.20
6038;BME280;3047;42.600;23.470;2022-08-01T08:23:13;92935.28;;;24.20;55.36
6038;BME280;3047;42.600;23.470;2022-08-01T08:25:59;92923.34;;;24.59;58.97
6038;BME280;3047;42.600;23.470;2022-08-01T08:28:26;92965.16;;;25.14;57.28
6038;BME280;3047;42.600;23.470;2022-08-01T08:30:53;92979.06;;;25.32;56.79
6038;BME280;3047;42.600;23.470;2022-08-01T08:33:22;92970.81;;;25.77;52.68
6038;BME280;3047;42.600;23.470;2022-08-01T08:35:49;92975.28;;;25.95;52.71
6038;BME280;3047;42.600;23.470;2022-08-01T08:38:16;92965.88;;;26.13;52.95
6038;BME280;3047;42.600;23.470;2022-08-01T08:40:42;92976.84;;;26.25;50.94
6038;BME280;3047;42.600;23.470;2022-08-01T08:43:10;92845.00;;;25.47;51.39
6038;BME280;3047;42.600;23.470;2022-08-01T08:45:37;92979.31;;;26.17;52.45
6038;BME280;3047;42.600;23.470;2022-08-01T08:48:05;92973.88;;;26.29;50.34
6038;BME280;3047;42.600;23.470;2022-08-01T08:50:34;92886.16;;;26.07;49.92
6038;BME280;3047;42.600;23.470;2022-08-01T08:53:01;92956.81;;;26.74;50.25
6038;BME280;3047;42.600;23.470;2022-08-01T08:55:29;92948.09;;;26.75;50.41
6038;BME280;3047;42.600;23.470;2022-08-01T08:57:57;92900.31;;;26.59;49.44
6038;BME280;3047;42.600;23.470;2022-08-01T09:00:27;92960.28;;;26.92;49.87
6038;BME280;3047;42.600;23.470;2022-08-01T09:02:54;92942.72;;;27.14;51.51
6038;BME280;3047;42.600;23.470;2022-08-01T09:05:22;92928.63;;;26.98;48.35
6038;BME280;3047;42.600;23.470;2022-08-01T09:07:52;92914.09;;;27.05;49.26
6038;BME280;3047;42.600;23.470;2022-08-01T09:10:19;92943.50;;;27.42;50.83
6038;BME280;3047;42.600;23.470;2022-08-01T09:13:01;92945.94;;;27.25;47.29
6038;BME280;3047;42.600;23.470;2022-08-01T09:15:38;92917.13;;;27.28;48.11
6038;BME280;3047;42.600;23.470;2022-08-01T09:18:05;92896.44;;;27.19;45.84
6038;BME280;3047;42.600;23.470;2022-08-01T09:20:32;92920.75;;;27.53;47.13
6038;BME280;3047;42.600;23.470;2022-08-01T09:23:02;92949.00;;;27.74;48.05
6038;BME280;3047;42.600;23.470;2022-08-01T09:25:50;92935.03;;;27.57;45.76
6038;BME280;3047;42.600;23.470;2022-08-01T09:28:16;92927.56;;;27.54;45.41
6038;BME280;3047;42.600;23.470;2022-08-01T09:30:43;92930.31;;;27.35;44.98
6038;BME280;3047;42.600;23.470;2022-08-01T09:33:10;92930.97;;;27.37;43.98
6038;BME280;3047;42.600;23.470;2022-08-01T09:35:37;92927.94;;;27.42;42.75
6038;BME280;3047;42.600;23.470;2022-08-01T09:38:19;92947.59;;;27.44;44.71
6038;BME280;3047;42.600;23.470;2022-08-01T09:40:47;92918.81;;;27.38;44.95
6038;BME280;3047;42.600;23.470;2022-08-01T09:43:15;92924.22;;;27.44;44.83
6038;BME280;3047;42.600;23.470;2022-08-01T09:45:42;92885.69;;;27.49;45.65
6038;BME280;3047;42.600;23.470;2022-08-01T09:48:09;92912.31;;;27.51;46.57
6038;BME280;3047;42.600;23.470;2022-08-01T09:50:40;92942.84;;;27.57;44.55
6038;BME280;3047;42.600;23.470;2022-08-01T09:53:08;92936.59;;;27.68;43.01
6038;BME280;3047;42.600;23.470;2022-08-01T09:55:36;92910.53;;;27.52;41.79
6038;BME280;3047;42.600;23.470;2022-08-01T09:58:05;92925.88;;;27.81;43.31
6038;BME280;3047;42.600;23.470;2022-08-01T10:00:33;92925.19;;;27.79;43.75
6038;BME280;3047;42.600;23.470;2022-08-01T10:03:18;92906.28;;;27.69;44.80
6038;BME280;3047;42.600;23.470;2022-08-01T10:05:45;92923.13;;;27.47;44.44
6038;BME280;3047;42.600;23.470;2022-08-01T10:08:13;92932.31;;;27.59;43.28
6038;BME280;3047;42.600;23.470;2022-08-01T10:10:41;92832.09;;;27.04;43.21
6038;BME280;3047;42.600;23.470;2022-08-01T10:13:09;92922.75;;;27.77;44.39
6038;BME280;3047;42.600;23.470;2022-08-01T10:15:37;92924.16;;;27.90;44.37
6038;BME280;3047;42.600;23.470;2022-08-01T10:18:09;92887.28;;;27.68;45.33
6038;BME280;3047;42.600;23.470;2022-08-01T10:20:37;92915.59;;;27.97;45.97
6038;BME280;3047;42.600;23.470;2022-08-01T10:23:04;92866.81;;;27.83;44.87
6038;BME280;3047;42.600;23.470;2022-08-01T10:25:34;92906.53;;;28.01;45.64
6038;BME280;3047;42.600;23.470;2022-08-01T10:28:08;92910.94;;;28.01;44.43
6038;BME280;3047;42.600;23.470;2022-08-01T10:30:37;92882.34;;;27.75;44.00
6038;BME280;3047;42.600;23.470;2022-08-01T10:33:04;92820.97;;;27.48;45.92
6038;BME280;3047;42.600;23.470;2022-08-01T10:35:31;92902.88;;;28.12;46.04
6038;BME280;3047;42.600;23.470;2022-08-01T10:37:58;92858.81;;;28.02;44.86
6038;BME280;3047;42.600;23.470;2022-08-01T10:40:25;92876.63;;;28.23;46.52
6038;BME280;3047;42.600;23.470;2022-08-01T10:42:53;92910.22;;;28.17;43.61
6038;BME280;3047;42.600;23.470;2022-08-01T10:45:22;92797.97;;;26.91;44.64
6038;BME280;3047;42.600;23.470;2022-08-01T10:47:55;92900.22;;;27.60;44.90
6038;BME280;3047;42.600;23.470;2022-08-01T10:50:28;92893.63;;;27.48;47.03
6038;BME280;3047;42.600;23.470;2022-08-01T10:53:13;92884.00;;;27.40;46.99
6038;BME280;3047;42.600;23.470;2022-08-01T10:55:58;92879.72;;;27.75;45.88
6038;BME280;3047;42.600;23.470;2022-08-01T10:58:27;92904.41;;;27.79;45.02
6038;BME280;3047;42.600;23.470;2022-08-01T11:01:16;92902.72;;;27.88;46.67
6038;BME280;3047;42.600;23.470;2022-08-01T11:03:55;92812.97;;;27.59;48.29
6038;BME280;3047;42.600;23.470;2022-08-01T11:06:25;92906.22;;;27.78;45.53
6038;BME280;3047;42.600;23.470;2022-08-01T11:08:53;92873.88;;;27.73;47.56
6038;BME280;3047;42.600;23.470;2022-08-01T11:11:21;92874.81;;;27.90;47.59
6038;BME280;3047;42.600;23.470;2022-08-01T11:14:01;92894.72;;;28.07;46.25
6038;BME280;3047;42.600;23.470;2022-08-01T11:16:34;92892.34;;;27.88;46.27
6038;BME280;3047;42.600;23.470;2022-08-01T11:19:06;92891.19;;;28.08;45.46
6038;BME280;3047;42.600;23.470;2022-08-01T11:21:58;92887.91;;;28.06;46.37
6038;BME280;3047;42.600;23.470;2022-08-01T11:24:54;92893.91;;;28.06;46.09
6038;BME280;3047;42.600;23.470;2022-08-01T11:27:25;92883.53;;;28.06;44.84
6038;BME280;3047;42.600;23.470;2022-08-01T11:30:24;92883.44;;;28.16;46.73
6038;BME280;3047;42.600;23.470;2022-08-01T11:32:54;92890.19;;;28.09;46.15
6038;BME280;3047;42.600;23.470;2022-08-01T11:35:22;92879.59;;;28.02;46.17
6038;BME280;3047;42.600;23.470;2022-08-01T11:37:52;92872.31;;;28.32;47.42
6038;BME280;3047;42.600;23.470;2022-08-01T11:40:23;92850.63;;;28.41;45.40
6038;BME280;3047;42.600;23.470;2022-08-01T11:42:51;92868.06;;;28.31;45.96
6038;BME280;3047;42.600;23.470;2022-08-01T11:45:46;92884.28;;;28.25;46.32
6038;BME280;3047;42.600;23.470;2022-08-01T11:48:20;92844.69;;;27.97;44.17
6038;BME280;3047;42.600;23.470;2022-08-01T11:50:47;92868.97;;;28.14;45.63
6038;BME280;3047;42.600;23.470;2022-08-01T11:53:15;92820.50;;;27.96;45.83
6038;BME280;3047;42.600;23.470;2022-08-01T11:55:46;92878.94;;;28.26;47.32
6038;BME280;3047;42.600;23.470;2022-08-01T11:58:15;92874.41;;;28.28;45.53
6038;BME280;3047;42.600;23.470;2022-08-01T12:00:50;92884.94;;;28.27;45.60
6038;BME280;3047;42.600;23.470;2022-08-01T12:03:27;92856.44;;;28.09;46.28
6038;BME280;3047;42.600;23.470;2022-08-01T12:05:55;92875.44;;;28.09;45.20
6038;BME280;3047;42.600;23.470;2022-08-01T12:08:25;92824.28;;;27.76;47.53
6038;BME280;3047;42.600;23.470;2022-08-01T12:10:53;92873.75;;;28.00;46.25
6038;BME280;3047;42.600;23.470;2022-08-01T12:13:26;92874.75;;;28.07;47.72
6038;BME280;3047;42.600;23.470;2022-08-01T12:15:53;92876.81;;;27.96;46.71
6038;BME280;3047;42.600;23.470;2022-08-01T12:18:21;92863.28;;;27.84;46.96
6038;BME280;3047;42.600;23.470;2022-08-01T12:20:49;92886.78;;;27.82;46.25
6038;BME280;3047;42.600;23.470;2022-08-01T12:23:32;92891.28;;;27.63;46.08
6038;BME280;3047;42.600;23.470;2022-08-01T12:26:13;92890.56;;;27.52;46.73
6038;BME280;3047;42.600;23.470;2022-08-01T12:28:40;92883.44;;;27.54;48.02
6038;BME280;3047;42.600;23.470;2022-08-01T12:31:16;92832.88;;;27.15;48.24
6038;BME280;3047;42.600;23.470;2022-08-01T12:40:58;92787.88;;;26.70;49.63
6038;BME280;3047;42.600;23.470;2022-08-01T12:44:21;92783.66;;;26.69;48.67
6038;BME280;3047;42.600;23.470;2022-08-01T12:47:14;92832.91;;;27.05;48.23
6038;BME280;3047;42.600;23.470;2022-08-01T12:49:57;92794.59;;;26.81;48.20
6038;BME280;3047;42.600;23.470;2022-08-01T12:52:25;92825.41;;;27.02;49.62
6038;BME280;3047;42.600;23.470;2022-08-01T12:55:12;92769.44;;;26.73;49.69
6038;BME280;3047;42.600;23.470;2022-08-01T12:58:11;92866.34;;;27.44;48.07
6038;BME280;3047;42.600;23.470;2022-08-01T13:00:45;92742.84;;;26.53;49.61
6038;BME280;3047;42.600;23.470;2022-08-01T13:03:16;92641.72;;;25.92;48.33
6038;BME280;3047;42.600;23.470;2022-08-01T13:05:50;92857.97;;;27.32;49.10
6038;BME280;3047;42.600;23.470;2022-08-01T13:08:30;92828.69;;;27.04;48.52
6038;BME280;3047;42.600;23.470;2022-08-01T13:11:00;92814.25;;;26.83;47.58
6038;BME280;3047;42.600;23.470;2022-08-01T13:13:37;92834.97;;;26.83;49.76
6038;BME280;3047;42.600;23.470;2022-08-01T13:16:09;92851.31;;;27.11;50.67
6038;BME280;3047;42.600;23.470;2022-08-01T13:18:37;92849.78;;;27.09;50.25
6038;BME280;3047;42.600;23.470;2022-08-01T13:21:08;92854.88;;;27.10;51.84
6038;BME280;3047;42.600;23.470;2022-08-01T13:23:36;92830.97;;;26.89;48.13
6038;BME280;3047;42.600;23.470;2022-08-01T13:26:06;92792.59;;;26.57;47.43
6038;BME280;3047;42.600;23.470;2022-08-01T13:28:34;92854.75;;;26.84;47.79
6038;BME280;3047;42.600;23.470;2022-08-01T13:31:07;92858.22;;;26.93;48.06
6038;BME280;3047;42.600;23.470;2022-08-01T13:33:41;92852.88;;;26.77;48.07
6038;BME280;3047;42.600;23.470;2022-08-01T13:36:09;92834.38;;;26.72;48.31
6038;BME280;3047;42.600;23.470;2022-08-01T13:38:36;92850.72;;;26.72;49.43
6038;BME280;3047;42.600;23.470;2022-08-01T13:41:20;92841.25;;;26.63;51.76
6038;BME280;3047;42.600;23.470;2022-08-01T13:43:49;92849.47;;;26.58;50.32
6038;BME280;3047;42.600;23.470;2022-08-01T13:46:16;92842.88;;;26.64;52.50
6038;BME280;3047;42.600;23.470;2022-08-01T13:48:43;92838.75;;;26.71;52.05
6038;BME280;3047;42.600;23.470;2022-08-01T13:51:10;92840.81;;;26.68;50.75
6038;BME280;3047;42.600;23.470;2022-08-01T13:53:37;92694.78;;;25.78;51.83
6038;BME280;3047;42.600;23.470;2022-08-01T13:56:08;92837.69;;;26.64;51.88
6038;BME280;3047;42.600;23.470;2022-08-01T13:58:37;92789.88;;;26.31;51.40
6038;BME280;3047;42.600;23.470;2022-08-01T14:01:05;92799.03;;;26.53;49.62
6038;BME280;3047;42.600;23.470;2022-08-01T14:03:32;92818.00;;;26.44;51.52
6038;BME280;3047;42.600;23.470;2022-08-01T14:05:59;92816.81;;;26.38;50.35
6038;BME280;3047;42.600;23.470;2022-08-01T14:08:26;92837.88;;;26.53;51.79
6038;BME280;3047;42.600;23.470;2022-08-01T14:10:52;92832.50;;;26.64;50.16